createdAt,value
2022-09-03T00:01:36.752Z,22.45
2022-09-03T00:06:49.030Z,22.72
2022-09-03T00:12:06.435Z,22.94
2022-09-03T00:17:21.369Z,22.59
2022-09-03T00:22:30.206Z,22.86
2022-09-03T00:27:39.291Z,22.47
2022-09-03T00:32:49.672Z,22.06
2022-09-03T00:37:53.979Z,22.80
2022-09-03T00:43:12.259Z,23.13
2022-09-03T00:48:49.674Z,23.38
2022-09-03T00:54:29.995Z,23.06
2022-09-03T00:59:48.162Z,22.04
2022-09-03T01:05:02.780Z,21.18
2022-09-03T01:10:16.767Z,22.30
2022-09-03T01:15:29.611Z,22.70
2022-09-03T01:20:53.716Z,23.30
2022-09-03T01:26:17.223Z,23.24
2022-09-03T01:31:33.825Z,23.10
2022-09-03T01:36:45.554Z,23.40
2022-09-03T01:42:16.432Z,23.42
2022-09-03T01:47:51.810Z,23.62
2022-09-03T01:53:15.799Z,23.34
2022-09-03T01:58:40.718Z,22.17
2022-09-03T02:03:45.782Z,22.01
2022-09-03T02:08:48.262Z,22.58
2022-09-03T02:13:57.739Z,22.52
2022-09-03T02:19:05.437Z,22.49
2022-09-03T02:24:09.435Z,22.34
2022-09-03T02:29:12.813Z,22.19
2022-09-03T02:34:15.347Z,21.66
2022-09-03T02:39:17.959Z,21.54
2022-09-03T02:44:36.220Z,21.57
2022-09-03T02:49:40.208Z,21.93
2022-09-03T02:54:45.139Z,21.22
2022-09-03T02:59:47.568Z,20.42
2022-09-03T03:04:50.154Z,20.27
2022-09-03T03:09:52.762Z,20.07
2022-09-03T03:14:55.200Z,20.97
2022-09-03T03:19:57.607Z,20.94
2022-09-03T03:25:00.195Z,20.85
2022-09-03T03:30:02.606Z,21.04
2022-09-03T03:35:06.559Z,21.76
2022-09-03T03:40:09.536Z,21.95
2022-09-03T03:45:12.100Z,21.64
2022-09-03T03:50:14.633Z,21.36
2022-09-03T03:55:17.123Z,21.37
2022-09-03T04:00:19.645Z,21.94
2022-09-03T04:05:23.279Z,22.21
2022-09-03T04:10:26.460Z,22.28
2022-09-03T04:15:29.141Z,22.45
2022-09-03T04:20:31.575Z,22.74
2022-09-03T04:25:34.060Z,22.38
2022-09-03T04:30:38.058Z,22.00
2022-09-03T04:35:41.115Z,20.72
2022-09-03T04:40:44.031Z,19.66
2022-09-03T04:45:46.506Z,19.42
2022-09-03T04:50:49.027Z,19.50
2022-09-03T04:55:51.460Z,19.66
2022-09-03T05:00:54.065Z,19.69
2022-09-03T05:05:56.926Z,19.67
2022-09-03T05:11:00.787Z,19.89
2022-09-03T05:16:08.267Z,19.58
2022-09-03T05:21:12.862Z,19.54
2022-09-03T05:26:21.006Z,19.66
2022-09-03T05:31:26.456Z,19.96
2022-09-03T05:36:32.163Z,19.75
2022-09-03T05:41:34.762Z,20.29
2022-09-03T05:46:38.088Z,21.14
2022-09-03T05:51:40.608Z,21.04
2022-09-03T05:56:43.287Z,20.81
2022-09-03T06:01:51.543Z,20.69
2022-09-03T06:06:56.903Z,20.40
2022-09-03T06:12:00.083Z,20.97
2022-09-03T06:17:06.285Z,20.23
2022-09-03T06:22:08.706Z,19.60
2022-09-03T06:27:11.095Z,19.54
2022-09-03T06:32:14.493Z,20.03
2022-09-03T06:37:16.919Z,20.66
2022-09-03T06:42:19.960Z,20.81
2022-09-03T06:47:24.546Z,20.29
2022-09-03T06:52:27.402Z,20.11
2022-09-03T06:57:30.716Z,19.76
2022-09-03T07:02:33.721Z,20.03
2022-09-03T07:07:37.535Z,20.04
2022-09-03T07:12:39.911Z,20.24
2022-09-03T07:17:42.977Z,20.39
2022-09-03T07:22:45.356Z,20.70
2022-09-03T07:27:48.723Z,20.89
2022-09-03T07:32:51.782Z,20.88
2022-09-03T07:37:55.205Z,21.75
2022-09-03T07:43:02.058Z,22.09
2022-09-03T07:48:05.072Z,22.81
2022-09-03T07:53:08.292Z,22.84
2022-09-03T07:58:14.359Z,23.27
2022-09-03T08:03:17.727Z,23.53
2022-09-03T08:08:20.335Z,23.92
2022-09-03T08:13:22.760Z,23.84
2022-09-03T08:18:25.332Z,24.09
2022-09-03T08:23:27.929Z,24.42
2022-09-03T08:28:31.933Z,25.70
2022-09-03T08:33:37.445Z,24.63
2022-09-03T08:38:43.739Z,25.41
2022-09-03T08:43:58.638Z,26.81
2022-09-03T08:49:08.062Z,27.25
2022-09-03T08:54:13.195Z,27.03
2022-09-03T08:59:15.730Z,26.48
2022-09-03T09:04:51.996Z,25.76
2022-09-03T09:10:00.979Z,25.56
2022-09-03T09:15:40.875Z,25.52
2022-09-03T09:20:49.755Z,25.38
2022-09-03T09:25:53.938Z,25.33
2022-09-03T09:30:58.139Z,28.07
2022-09-03T09:36:08.552Z,29.69
2022-09-03T09:41:30.034Z,27.63
2022-09-03T09:46:41.566Z,30.54
2022-09-03T09:51:44.233Z,29.72
2022-09-03T09:56:58.303Z,26.99
2022-09-03T10:02:10.161Z,27.08
2022-09-03T10:07:33.018Z,26.65
2022-09-03T10:12:47.342Z,26.66
2022-09-03T10:18:31.236Z,26.48
2022-09-03T10:24:15.771Z,26.76
2022-09-03T10:29:22.129Z,26.43
2022-09-03T10:34:28.888Z,27.27
2022-09-03T10:40:08.827Z,28.55
2022-09-03T10:45:30.020Z,28.79
2022-09-03T10:50:56.586Z,29.20
2022-09-03T10:56:21.639Z,29.14
2022-09-03T11:01:35.899Z,28.64
2022-09-03T11:06:54.824Z,28.14
2022-09-03T11:12:26.758Z,27.03
2022-09-03T11:17:34.289Z,26.61
2022-09-03T11:22:39.068Z,26.53
2022-09-03T11:27:44.587Z,25.83
2022-09-03T11:32:56.326Z,26.00
2022-09-03T11:38:01.820Z,25.73
2022-09-03T11:43:28.008Z,25.62
2022-09-03T11:48:38.047Z,25.45
2022-09-03T11:53:40.497Z,24.95
2022-09-03T11:58:43.678Z,25.02
2022-09-03T12:03:53.826Z,24.58
2022-09-03T12:09:05.991Z,24.00
2022-09-03T12:14:44.242Z,23.89
2022-09-03T12:19:57.215Z,24.29
2022-09-03T12:25:12.201Z,24.10
2022-09-03T12:30:21.542Z,23.40
2022-09-03T12:46:16.134Z,20.64
2022-09-03T12:56:58.386Z,20.36
2022-09-03T13:02:12.132Z,19.99
2022-09-03T13:07:25.783Z,20.88
2022-09-03T13:12:53.454Z,20.57
2022-09-03T13:18:26.399Z,20.83
2022-09-03T13:23:45.529Z,20.62
2022-09-03T13:29:35.607Z,20.23
2022-09-03T13:34:46.415Z,22.01
2022-09-03T13:40:03.956Z,24.54
2022-09-03T13:45:26.134Z,21.91
2022-09-03T13:50:35.410Z,21.18
2022-09-03T13:55:50.789Z,21.55
2022-09-03T14:00:58.676Z,21.87
2022-09-03T14:06:38.781Z,23.97
2022-09-03T14:11:56.323Z,26.87
2022-09-03T14:17:40.503Z,24.71
2022-09-03T14:23:10.466Z,25.66
2022-09-03T14:28:36.487Z,25.34
2022-09-03T14:33:47.983Z,23.73
2022-09-03T14:39:09.492Z,22.76
2022-09-03T14:44:32.488Z,22.55
2022-09-03T14:50:08.911Z,23.32
2022-09-03T14:55:26.397Z,24.27
2022-09-03T15:01:03.857Z,23.80
2022-09-03T15:06:31.183Z,24.99
2022-09-03T15:11:46.833Z,23.77
2022-09-03T15:17:04.932Z,24.97
2022-09-03T15:22:33.279Z,24.48
2022-09-03T15:28:06.987Z,23.32
2022-09-03T15:33:28.614Z,24.35
2022-09-03T15:39:02.231Z,25.84
2022-09-03T15:44:15.682Z,25.61
2022-09-03T15:49:40.901Z,25.03
2022-09-03T15:54:48.443Z,24.85
2022-09-03T16:00:02.142Z,24.89
2022-09-03T16:05:14.339Z,25.21
2022-09-03T16:10:25.835Z,25.40
2022-09-03T16:15:45.375Z,25.10
2022-09-03T16:21:00.074Z,24.94
2022-09-03T16:26:14.167Z,24.86
2022-09-03T16:31:36.197Z,24.79
2022-09-03T16:36:44.876Z,24.83
2022-09-03T16:42:10.629Z,24.86
2022-09-03T16:47:45.255Z,24.74
2022-09-03T16:53:29.274Z,24.75
2022-09-03T16:58:40.788Z,24.84
2022-09-03T17:04:29.962Z,24.87
2022-09-03T17:10:07.649Z,24.01
2022-09-03T17:15:10.184Z,23.57
2022-09-03T17:20:37.321Z,23.03
2022-09-03T17:25:50.498Z,22.55
2022-09-03T17:31:02.963Z,22.49
2022-09-03T17:36:38.443Z,22.14
2022-09-03T17:41:46.943Z,22.29
2022-09-03T17:47:14.171Z,22.17
2022-09-03T17:52:19.891Z,21.88
2022-09-03T17:57:32.387Z,21.76
2022-09-03T18:02:37.900Z,21.67
2022-09-03T18:08:09.001Z,22.28
2022-09-03T18:13:40.516Z,23.10
2022-09-03T18:18:53.070Z,22.05
2022-09-03T18:24:40.531Z,21.79
2022-09-03T18:30:18.490Z,22.84
2022-09-03T18:35:39.828Z,23.20
2022-09-03T18:41:17.708Z,21.96
2022-09-03T18:53:16.433Z,22.44
2022-09-03T18:59:13.246Z,22.60
2022-09-03T19:04:43.282Z,22.11
2022-09-03T19:10:24.375Z,21.43
2022-09-03T19:16:02.767Z,21.46
2022-09-03T19:21:41.887Z,22.79
2022-09-03T19:27:48.228Z,23.11
2022-09-03T19:33:18.181Z,22.26
2022-09-03T19:39:14.427Z,22.38
2022-09-03T19:45:13.621Z,22.36
2022-09-03T19:50:45.888Z,22.59
2022-09-03T19:56:25.478Z,22.49
2022-09-03T20:01:56.059Z,21.63
2022-09-03T20:07:20.508Z,21.09
2022-09-03T20:12:26.046Z,21.70
2022-09-03T20:17:31.504Z,22.43
2022-09-03T20:22:44.661Z,22.77
2022-09-03T20:28:21.789Z,22.64
2022-09-03T20:33:48.329Z,22.79
2022-09-03T20:39:22.809Z,22.75
2022-09-03T20:44:53.207Z,21.52
2022-09-03T20:50:10.067Z,22.05
2022-09-03T20:55:44.414Z,21.56
2022-09-03T21:00:51.074Z,21.60
2022-09-03T21:06:25.850Z,22.79
2022-09-03T21:11:40.611Z,22.74
2022-09-03T21:16:51.944Z,22.12
2022-09-03T21:21:57.090Z,20.92
2022-09-03T21:27:10.913Z,20.54
2022-09-03T21:32:20.696Z,21.10
2022-09-03T21:37:23.912Z,21.34
2022-09-03T21:42:32.227Z,21.10
2022-09-03T21:47:43.755Z,20.55
2022-09-03T21:53:02.622Z,19.64
2022-09-03T21:58:42.090Z,19.27
2022-09-03T22:03:44.747Z,18.71
2022-09-03T22:09:01.737Z,18.74
2022-09-03T22:14:15.603Z,18.96
2022-09-03T22:19:18.040Z,20.03
2022-09-03T22:24:45.162Z,20.72
2022-09-03T22:30:05.001Z,20.00
2022-09-03T22:35:22.511Z,19.89
2022-09-03T22:40:37.000Z,20.36
2022-09-03T22:45:59.429Z,19.94
2022-09-03T22:51:03.477Z,19.36
2022-09-03T22:56:29.173Z,19.32
2022-09-03T23:01:39.412Z,19.82
2022-09-03T23:07:24.219Z,19.16
2022-09-03T23:12:46.957Z,18.85
2022-09-03T23:18:20.427Z,18.93
2022-09-03T23:23:31.131Z,19.59
2022-09-03T23:28:36.746Z,19.79
2022-09-03T23:33:40.004Z,19.54
2022-09-03T23:38:45.819Z,19.17
2022-09-03T23:43:58.374Z,18.57
2022-09-03T23:49:10.031Z,18.66
2022-09-03T23:54:26.546Z,18.51
2022-09-03T23:59:54.843Z,19.14
